LDZD/ZAD METAR and TAF weather

Enter ICAO airport designator
Station Type Date Time Source
LDZD METAR 2019/06/27 04:00 UTC NOAA

LDZD 270400Z 00000KT CAVOK 20/18 Q1019 NOSIG


Station Type Date Time Source
LDZD Decoded METAR 2019/06/27 04:00 UTC NOAA

Zadar / Zemunik, Croatia (LDZD) 44-06N 015-21E
Jun 27, 2019 - 12:00 AM EDT / 2019.06.27 0400 UTC
Wind: Calm:0
Visibility: greater than 7 mile(s):0
Temperature: 68 F (20 C)
Dew Point: 64 F (18 C)
Relative Humidity: 88%
Pressure (altimeter): 30.09 in. Hg (1019 hPa)
ob: LDZD 270400Z 00000KT CAVOK 20/18 Q1019 NOSIG
cycle: 4

Station Type Date Time Source
LDZD TAF 2019/06/26 18:27 UTC NOAA

TAF LDZD 261725Z 2618/2718 06007KT CAVOK TX36/2713Z TN21/2703Z
BECMG 2618/2620 VRB02KT
BECMG 2710/2712 30012KT

Example: see airport list